Flight Track Log - Related Links

Times and Time Zones

All times are in EDT time to prevent confusion due to time zone crossing. See the N201SU flight status page for this flight to view local times or setup timezone preferences in your user account.

Time Position Orientation Groundspeed Altitude Reporting Facility
EDT Latitude Longitude Course Direction KTS MPH feet Rate Location/Type
Wed 08:02:54 AM 39.9833 -75.9000 235° Southwest 197 227 1,900  Level Philadelphia TRACON
Wed 08:03:13 AM 39.9733 -75.9186 235° Southwest 179 206 3,000 2,769 Climbing FAA TRACON SMA TRACON (SMA)
Wed 08:03:33 AM 39.9583 -75.9217 189° South 207 238 3,700 2,850 Climbing FAA TRACON SMA TRACON (SMA)
Wed 08:03:53 AM 39.9358 -75.9303 196° South 210 242 4,900 3,150 Climbing FAA TRACON SMA TRACON (SMA)
Wed 08:04:13 AM 39.9275 -75.9483 239° Southwest 201 231 5,800 2,769 Climbing FAA TRACON SMA TRACON (SMA)
Wed 08:04:32 AM 39.9250 -75.9714 262° West 209 241 6,700 2,462 Climbing FAA TRACON SMA TRACON (SMA)
Wed 08:04:52 AM 39.9233 -76.0011 266° West 219 252 7,400 2,049 Climbing FAA TRACON SMA TRACON (SMA)
Wed 08:05:13 AM 39.9211 -76.0289 264° West 252 290 8,100 1,902 Climbing FAA TRACON SMA TRACON (SMA)
Wed 08:05:33 AM 39.9169 -76.0539 258° West 255 293 8,700 2,400 Climbing FAA TRACON SMA TRACON (SMA)
Wed 08:05:53 AM 39.9161 -76.0944 268° West 270 311 9,700 2,769 Climbing FAA TRACON SMA TRACON (SMA)
Wed 08:06:12 AM 39.9142 -76.1244 265° West 272 313 10,500 2,400 Climbing FAA TRACON SMA TRACON (SMA)
Wed 08:06:33 AM 39.9117 -76.1494 263° West 271 312 11,300 3,220 Climbing FAA TRACON SMA TRACON (SMA)
Wed 08:06:53 AM 39.9081 -76.1911 264° West 263 303 12,700 3,450 Climbing FAA TRACON SMA TRACON (SMA)
Wed 08:07:13 AM 39.9072 -76.2197 268° West 260 299 13,600 2,462 Climbing FAA TRACON SMA TRACON (SMA)
Wed 08:07:32 AM 39.9058 -76.2447 266° West 260 299 14,300 2,462 Climbing FAA TRACON SMA TRACON (SMA)
Wed 08:07:52 AM 39.9003 -76.2850 260° West 264 304 15,200 2,195 Climbing FAA TRACON SMA TRACON (SMA)
Wed 08:08:13 AM 39.8986 -76.3153 266° West 266 306 15,800 1,024 Climbing FAA TRACON SMA TRACON (SMA)
Wed 08:08:33 AM 39.9006 -76.3208 295° West 268 308 15,900 2,118 Climbing FAA TRACON SMA TRACON (SMA)
Wed 08:09:04 AM 39.9061 -76.3997 275° West 265 305 17,600 2,283 Climbing New York Center
Wed 08:10:05 AM 39.9139 -76.4978 276° West 282 325 19,400 1,884 Climbing New York Center
Wed 08:11:05 AM 39.9192 -76.6067 274° West 296 341 21,400 2,067 Climbing New York Center
Wed 08:12:04 AM 39.9303 -76.7158 278° West 302 348 23,500 2,067 Climbing New York Center
Wed 08:13:04 AM 39.9372 -76.8275 275° West 312 359 25,500 1,785 Climbing New York Center
Wed 08:14:05 AM 39.9481 -76.9394 277° West 312 359 27,100 1,563 Climbing New York Center
Wed 08:15:03 AM 39.9522 -77.0564 273° West 317 365 28,600 1,563 Climbing New York Center
Wed 08:16:04 AM 39.9583 -77.1761 274° West 324 373 30,200 1,537 Climbing New York Center
Wed 08:17:04 AM 39.9619 -77.2983 272° West 331 381 31,700 1,488 Climbing New York Center
Wed 08:18:05 AM 39.9658 -77.4153 273° West 331 381 33,200 1,547 Climbing New York Center
Wed 08:20:14 AM 39.9758 -77.6733 273° West 325 374 36,600 1,494 Climbing Cleveland Center
Wed 08:22:14 AM 39.9833 -77.8953 273° West 320 368 39,400 1,133 Climbing Cleveland Center
Wed 08:23:14 AM 39.9858 -78.0061 272° West 314 361 40,000 300 Climbing Cleveland Center
Wed 08:24:14 AM 39.9883 -78.1228 272° West 314 361 40,000  Level Cleveland Center
Wed 08:25:14 AM 39.9931 -78.2444 273° West 321 369 40,000  Level Cleveland Center
Wed 08:26:14 AM 39.9894 -78.3719 268° West 339 390 40,000  Level Cleveland Center
Wed 08:27:14 AM 39.9939 -78.5019 273° West 354 407 40,000  Level Cleveland Center
Wed 08:28:14 AM 39.9964 -78.6319 271° West 359 413 40,000  Level Cleveland Center
Wed 08:29:14 AM 39.9964 -78.7619 270° West 364 419 40,000  Level Cleveland Center
Wed 08:30:14 AM 40.0003 -78.8892 272° West 364 419 40,000  Level Cleveland Center
Wed 08:31:14 AM 40.0042 -79.0139 272° West 364 419 40,000  Level Cleveland Center
Wed 08:32:14 AM 40.0058 -79.1411 271° West 359 413 40,000  Level Cleveland Center
Wed 08:33:14 AM 40.0094 -79.2658 272° West 359 413 40,000  Level Cleveland Center
Wed 08:34:14 AM 40.0108 -79.3931 271° West 359 413 40,000  Level Cleveland Center
Wed 08:35:14 AM 40.0122 -79.5150 271° West 348 400 40,000  Level Cleveland Center
Wed 08:36:14 AM 40.0153 -79.6425 272° West 348 400 40,000  Level Cleveland Center
Wed 08:37:14 AM 40.0142 -79.7644 269° West 348 400 40,000  Level Cleveland Center
Wed 08:38:14 AM 40.0150 -79.9028 270° West 348 400 40,000  Level Cleveland Center
Wed 08:39:14 AM 40.0158 -80.0247 271° West 348 400 40,000  Level Cleveland Center
Wed 08:40:14 AM 40.0183 -80.1467 272° West 348 400 40,000  Level Cleveland Center
Wed 08:41:14 AM 40.0189 -80.2714 270° West 348 400 40,000  Level Cleveland Center
Wed 08:42:14 AM 40.0169 -80.3933 269° West 348 400 40,000  Level Cleveland Center
Wed 08:43:14 AM 40.0192 -80.5153 271° West 348 400 40,000  Level Cleveland Center
Wed 08:44:14 AM 40.0214 -80.6400 271° West 348 400 40,000  Level Cleveland Center
Wed 08:45:14 AM 40.0192 -80.7619 269° West 348 400 40,000  Level Cleveland Center
Wed 08:46:14 AM 40.0208 -80.8811 271° West 348 400 40,000  Level Cleveland Center
Wed 08:47:14 AM 40.0183 -81.0006 268° West 348 400 40,000  Level Cleveland Center
Wed 08:48:54 AM 40.0164 -81.1894 269° West 334 384 40,000  Level Indianapolis Center
Wed 08:49:55 AM 40.0158 -81.3133 270° West 337 388 40,000  Level Indianapolis Center
Wed 08:50:57 AM 40.0153 -81.4364 270° West 336 387 40,000  Level Indianapolis Center
Wed 08:51:58 AM 40.0150 -81.5597 270° West 337 388 40,000  Level Indianapolis Center
Wed 08:53:00 AM 40.0139 -81.7014 269° West 334 384 40,000  Level Indianapolis Center
Wed 08:54:01 AM 40.0125 -81.8086 269° West 335 386 40,000  Level Indianapolis Center
Wed 08:55:03 AM 40.0122 -81.9306 270° West 332 382 40,000  Level Indianapolis Center
Wed 08:56:05 AM 40.0106 -82.0714 269° West 332 382 40,000  Level Indianapolis Center
Wed 08:57:06 AM 40.0094 -82.1925 269° West 331 381 40,000  Level Indianapolis Center
Wed 08:58:08 AM 40.0072 -82.3128 269° West 329 379 40,000  Level Indianapolis Center
Wed 08:59:09 AM 40.0067 -82.4306 270° West 323 372 40,000  Level Indianapolis Center
Wed 09:00:11 AM 40.0039 -82.5486 268° West 322 371 40,000  Level Indianapolis Center
Wed 09:01:13 AM 40.0031 -82.6667 270° West 322 371 40,000  Level Indianapolis Center
Wed 09:02:14 AM 40.0011 -82.7850 269° West 325 374 40,000  Level Indianapolis Center
Wed 09:03:16 AM 39.9992 -82.9028 269° West 322 371 40,000  Level Indianapolis Center
Wed 09:04:18 AM 39.9972 -83.0192 269° West 322 371 40,000  Level Indianapolis Center
Wed 09:05:20 AM 39.9944 -83.1561 269° West 322 371 40,000  Level Indianapolis Center
Wed 09:06:21 AM 39.9917 -83.2747 268° West 325 374 40,000  Level Indianapolis Center
Wed 09:07:23 AM 39.9889 -83.3906 268° West 321 369 40,000  Level Indianapolis Center
Wed 09:08:25 AM 39.9872 -83.5078 269° West 325 374 40,000  Level Indianapolis Center
Wed 09:09:26 AM 39.9836 -83.6231 268° West 321 369 40,000  Level Indianapolis Center
Wed 09:10:28 AM 39.9806 -83.7389 268° West 321 369 40,000  Level Indianapolis Center
Wed 09:11:30 AM 39.9778 -83.8758 269° West 322 371 40,000  Level Indianapolis Center
Wed 09:12:31 AM 39.9742 -83.9914 268° West 318 366 40,000  Level Indianapolis Center
Wed 09:13:33 AM 39.9714 -84.1072 268° West 317 365 40,000  Level Indianapolis Center
Wed 09:14:35 AM 39.9686 -84.2225 268° West 318 366 40,000  Level Indianapolis Center
Wed 09:15:37 AM 39.9653 -84.3361 268° West 314 361 40,000  Level Indianapolis Center
Wed 09:16:38 AM 39.9617 -84.4500 268° West 313 360 40,000  Level Indianapolis Center
Wed 09:17:40 AM 39.9567 -84.5642 267° West 312 359 40,000  Level Indianapolis Center
Wed 09:18:42 AM 39.9533 -84.6772 268° West 311 358 40,000  Level Indianapolis Center
Wed 09:19:44 AM 39.9492 -84.7914 267° West 312 359 40,000 145 Level Indianapolis Center
Wed 09:20:46 AM 39.9444 -84.9217 267° West 310 357 40,300 341 Climbing Indianapolis Center
Wed 09:21:47 AM 39.9400 -85.0339 267° West 307 353 40,700 439 Climbing Indianapolis Center
Wed 09:22:49 AM 39.9364 -85.1456 268° West 308 354 41,200 435 Climbing Indianapolis Center
Wed 09:23:51 AM 39.9331 -85.2578 268° West 307 353 41,600 435 Climbing Indianapolis Center
Wed 09:24:53 AM 39.9289 -85.3681 267° West 305 351 42,100 435 Climbing Indianapolis Center
Wed 09:25:55 AM 39.9247 -85.4775 267° West 301 346 42,500 435 Climbing Indianapolis Center
Wed 09:26:57 AM 39.9192 -85.6022 267° West 295 339 43,000 242 Climbing Indianapolis Center
Wed 09:27:59 AM 39.9147 -85.7103 267° West 296 341 43,000  Level Indianapolis Center
Wed 09:29:01 AM 39.9106 -85.8186 267° West 299 344 43,000  Level Indianapolis Center
Wed 09:30:03 AM 39.9056 -85.9297 267° West 306 352 43,000  Level Indianapolis Center
Wed 09:31:04 AM 39.9008 -86.0392 267° West 305 351 43,000  Level Indianapolis Center
Wed 09:32:06 AM 39.8961 -86.1489 267° West 304 350 43,000  Level Indianapolis Center
Wed 09:33:08 AM 39.8908 -86.2761 267° West 304 350 43,000  Level Indianapolis Center
Wed 09:34:10 AM 39.8858 -86.3856 267° West 305 351 43,000  Level Indianapolis Center
Wed 09:35:12 AM 39.8800 -86.4942 266° West 304 350 43,000  Level Indianapolis Center
Wed 09:36:14 AM 39.8750 -86.6050 267° West 307 353 43,000  Level Indianapolis Center
Wed 09:37:16 AM 39.8692 -86.7156 266° West 306 352 43,000  Level Indianapolis Center
Wed 09:38:18 AM 39.8622 -86.8450 266° West 307 353 43,000  Level Indianapolis Center
Wed 09:39:20 AM 39.8558 -86.9581 266° West 312 359 43,000  Level Indianapolis Center
Wed 09:40:22 AM 39.8497 -87.0717 266° West 312 359 43,000  Level Indianapolis Center
Wed 09:41:23 AM 39.8444 -87.1842 267° West 312 359 43,000  Level Indianapolis Center
Wed 09:42:25 AM 39.8375 -87.2975 265° West 312 359 43,000  Level Indianapolis Center
Wed 09:43:27 AM 39.8311 -87.4133 266° West 319 367 43,000  Level Indianapolis Center
Wed 09:44:29 AM 39.8242 -87.5261 265° West 312 359 43,000  Level Indianapolis Center
Wed 09:45:31 AM 39.8172 -87.6608 266° West 317 365 43,000  Level Indianapolis Center
Wed 09:46:33 AM 39.8100 -87.7756 265° West 317 365 43,000  Level Indianapolis Center
Wed 09:47:35 AM 39.8022 -87.8900 265° West 317 365 43,000  Level Indianapolis Center
Wed 09:48:36 AM 39.7958 -88.0044 266° West 316 364 43,000 -49 Level Indianapolis Center
Wed 09:49:38 AM 39.7886 -88.1208 265° West 320 368 42,900  Descending Indianapolis Center
Wed 09:50:01 AM 39.7864 -88.1553 265° West 317 365 43,000 71 Climbing Kansas City Center
Wed 09:51:02 AM 39.7792 -88.2658 265° West 320 368 43,000  Level Kansas City Center
Wed 09:52:07 AM 39.7703 -88.4050 265° West 321 369 43,000  Level Kansas City Center
Wed 09:53:07 AM 39.7625 -88.5208 265° West 322 371 43,000  Level Kansas City Center
Wed 09:54:09 AM 39.7558 -88.6383 266° West 325 374 43,000  Level Kansas City Center
Wed 09:55:10 AM 39.7472 -88.7556 265° West 324 373 43,000  Level Kansas City Center
Wed 09:56:13 AM 39.7397 -88.8725 265° West 325 374 43,000  Level Kansas City Center
Wed 09:57:14 AM 39.7314 -88.9897 265° West 325 374 43,000  Level Kansas City Center
Wed 09:58:17 AM 39.7211 -89.1294 265° West 324 373 43,000  Level Kansas City Center
Wed 09:59:18 AM 39.7133 -89.2472 265° West 325 374 43,000  Level Kansas City Center
Wed 10:00:21 AM 39.7039 -89.3636 264° West 324 373 43,000  Level Kansas City Center
Wed 10:01:22 AM 39.6950 -89.4825 264° West 323 372 43,000  Level Kansas City Center
Wed 10:02:24 AM 39.6867 -89.5978 265° West 322 371 43,000  Level Kansas City Center
Wed 10:03:28 AM 39.6786 -89.7128 265° West 321 369 43,000  Level Kansas City Center
Wed 10:04:28 AM 39.6694 -89.8261 264° West 320 368 43,000  Level Kansas City Center
Wed 10:05:32 AM 39.6589 -89.9619 264° West 318 366 43,000  Level Kansas City Center
Wed 10:06:33 AM 39.6503 -90.0761 264° West 319 367 43,000  Level Kansas City Center
Wed 10:07:35 AM 39.6411 -90.1914 264° West 321 369 43,000  Level Kansas City Center
Wed 10:08:36 AM 39.6311 -90.3069 264° West 323 372 43,000  Level Kansas City Center
Wed 10:09:39 AM 39.6222 -90.4192 264° West 318 366 43,000  Level Kansas City Center
Wed 10:10:43 AM 39.6119 -90.5306 263° West 315 362 43,000  Level Kansas City Center
Wed 10:11:42 AM 39.6017 -90.6656 264° West 315 362 43,000  Level Kansas City Center
Wed 10:12:45 AM 39.5922 -90.7767 264° West 313 360 43,000  Level Kansas City Center
Wed 10:13:45 AM 39.5819 -90.8872 263° West 312 359 43,000  Level Kansas City Center
Wed 10:14:49 AM 39.5717 -90.9981 263° West 311 358 43,000  Level Kansas City Center
Wed 10:15:50 AM 39.5619 -91.1108 264° West 313 360 43,000  Level Kansas City Center
Wed 10:16:52 AM 39.5522 -91.2208 263° West 311 358 43,000  Level Kansas City Center
Wed 10:17:55 AM 39.5400 -91.3558 263° West 309 356 43,000  Level Kansas City Center
Wed 10:18:56 AM 39.5297 -91.4650 263° West 307 353 43,000  Level Kansas City Center
Wed 10:19:57 AM 39.5200 -91.5736 263° West 306 352 43,000  Level Kansas City Center
Wed 10:21:00 AM 39.5103 -91.6822 263° West 305 351 43,000  Level Kansas City Center
Wed 10:22:02 AM 39.4992 -91.7917 263° West 306 352 43,000  Level Kansas City Center
Wed 10:23:04 AM 39.4897 -91.8994 264° West 305 351 43,000  Level Kansas City Center
Wed 10:24:06 AM 39.4772 -92.0292 263° West 303 349 43,000  Level Kansas City Center
Wed 10:25:07 AM 39.4667 -92.1389 263° West 307 353 43,000  Level Kansas City Center
Wed 10:26:08 AM 39.4564 -92.2489 263° West 308 354 43,000  Level Kansas City Center
Wed 10:27:11 AM 39.4456 -92.3581 263° West 308 354 43,000  Level Kansas City Center
Wed 10:28:13 AM 39.4342 -92.4658 262° West 307 353 43,000  Level Kansas City Center
Wed 10:29:15 AM 39.4236 -92.5753 263° West 307 353 43,000  Level Kansas City Center
Wed 10:30:16 AM 39.4125 -92.6828 262° West 305 351 43,000  Level Kansas City Center
Wed 10:31:20 AM 39.3983 -92.8119 262° West 303 349 43,000  Level Kansas City Center
Wed 10:32:20 AM 39.3872 -92.9219 263° West 307 353 43,000  Level Kansas City Center
Wed 10:33:21 AM 39.3756 -93.0308 262° West 307 353 43,000  Level Kansas City Center
Wed 10:34:25 AM 39.3639 -93.1419 262° West 310 357 43,000  Level Kansas City Center
Wed 10:35:25 AM 39.3522 -93.2506 262° West 308 354 43,000  Level Kansas City Center
Wed 10:36:29 AM 39.3403 -93.3589 262° West 307 353 43,000  Level Kansas City Center
Wed 10:37:30 AM 39.3269 -93.4919 263° West 311 358 43,000  Level Kansas City Center
Wed 10:38:32 AM 39.3150 -93.6011 262° West 309 356 43,000  Level Kansas City Center
Wed 10:39:33 AM 39.3031 -93.7103 262° West 309 356 43,000  Level Kansas City Center
Wed 10:40:36 AM 39.2878 -93.8333 261° West 312 359 43,000  Level Kansas City Center
Wed 10:41:38 AM 39.2756 -93.9383 261° West 311 358 43,000  Level Kansas City Center
Wed 10:42:39 AM 39.2619 -94.0611 262° West 311 358 43,000  Level Kansas City Center
Wed 10:43:41 AM 39.2500 -94.1681 262° West 312 359 43,000  Level Kansas City Center
Wed 10:44:44 AM 39.2378 -94.2742 262° West 312 359 43,000  Level Kansas City Center
Wed 10:45:46 AM 39.2225 -94.3964 261° West 310 357 43,000  Level Kansas City Center
Wed 10:46:46 AM 39.2111 -94.5017 262° West 310 357 43,000  Level Kansas City Center
Wed 10:47:49 AM 39.1969 -94.6231 261° West 307 353 43,000 -143 Level Kansas City Center
Wed 10:48:52 AM 39.1828 -94.7286 260° West 310 357 42,700 -672 Descending Kansas City Center
Wed 10:49:54 AM 39.1678 -94.8578 262° West 330 380 41,600 -976 Descending Kansas City Center
Wed 10:50:55 AM 39.1531 -94.9769 261° West 348 400 40,700 -960 Descending Kansas City Center
Wed 10:51:59 AM 39.1350 -95.1214 261° West 355 409 39,600 -823 Descending Kansas City Center
Wed 10:52:59 AM 39.1192 -95.2419 260° West 344 396 39,000 -298 Descending Kansas City Center
Wed 10:54:00 AM 39.1044 -95.3619 261° West 340 391 39,000  Level Kansas City Center
Wed 10:55:05 AM 39.0892 -95.4881 261° West 339 390 39,000 -750 Level Kansas City Center
Wed 10:56:08 AM 39.0744 -95.6006 260° West 332 382 37,400 -1,835 Descending Kansas City Center
Wed 10:57:06 AM 39.0581 -95.7244 260° West 313 360 35,300 -1,854 Descending Kansas City Center
Wed 10:58:11 AM 39.0450 -95.8300 261° West 315 362 33,600 -1,776 Descending Kansas City Center
Wed 10:59:11 AM 39.0292 -95.9472 260° West 294 338 31,600 -1,790 Descending Kansas City Center
Wed 11:00:15 AM 39.0156 -96.0497 260° West 303 349 29,900 -1,619 Descending Kansas City Center
Wed 11:01:17 AM 39.0011 -96.1544 260° West 309 356 28,200 -1,934 Descending Kansas City Center
Wed 11:02:16 AM 38.9842 -96.2753 260° West 307 353 26,000 -1,984 Descending Kansas City Center
Wed 11:03:21 AM 38.9694 -96.3819 260° West 313 360 24,100 -1,810 Descending Kansas City Center
Wed 11:04:22 AM 38.9533 -96.4972 260° West 312 359 22,200 -1,820 Descending Kansas City Center
Wed 11:05:23 AM 38.9383 -96.6036 260° West 306 352 20,400 -1,728 Descending Kansas City Center
Wed 11:06:27 AM 38.9228 -96.7089 259° West 303 349 18,600 -1,728 Descending Kansas City Center
Wed 11:07:28 AM 38.9069 -96.8450 262° West 318 366 16,800 -1,820 Descending Kansas City Center
Wed 11:08:29 AM 38.8914 -96.9575 260° West 309 356 14,900 -1,887 Descending Kansas City Center
Wed 11:09:32 AM 38.8758 -97.0717 260° West 312 359 12,900 -1,714 Descending Kansas City Center
Wed 11:10:35 AM 38.8642 -97.1742 262° West 300 345 11,300 -1,584 Descending Kansas City Center
Wed 11:11:37 AM 38.8533 -97.2772 262° West 282 325 9,600 -1,512 Descending Kansas City Center
Wed 11:12:38 AM 38.8614 -97.3658 277° West 240 276 8,200 -1,623 Descending Kansas City Center
Wed 11:13:39 AM 38.8719 -97.4583 278° West 250 288 6,300 -2,016 Descending Kansas City Center
Wed 11:14:43 AM 38.8822 -97.5467 279° West 240 276 4,000 -1,632 Descending Kansas City Center
Wed 11:15:44 AM 38.8903 -97.6261 277° West 218 251 2,900 -927 Descending Kansas City Center
Wed 11:16:46 AM 38.8547 -97.6447 202° Southwest 148 170 2,100 -532 Descending Kansas City Center
Wed 11:17:48 AM 38.8214 -97.6472 183° South 132 152 1,800 -290 Descending Kansas City Center
Wed 11:19:00 AM 38.7833 -97.6500 270° West  Level FlightAware Approximate

Login

Don't have an account? Register now (free) for customized features, flight alerts, and more!